Time;durP1;ratioP1;P1;durP2;ratioP2;P2;SDS_P1;SDS_P2;PMS_P1;PMS_P2;Temp;Humidity;BMP_temperature;BMP_pressure;BME280_temperature;BME280_humidity;BME280_pressure;Samples;Min_cycle;Max_cycle;Signal;HPM_P1;HPM_P2
2023/11/16 00:00:41;;;;;;;67.65;63.08;;;12.40;99.90;;;;;;4995505;28;20046;-70
2023/11/16 00:03:07;;;;;;;66.13;61.08;;;12.50;99.90;;;;;;4995935;28;20037;-71
2023/11/16 00:05:36;;;;;;;69.55;64.82;;;12.50;99.90;;;;;;4995646;28;20043;-71
2023/11/16 00:08:07;;;;;;;69.28;64.13;;;12.70;99.90;;;;;;4995707;28;20030;-71
2023/11/16 00:10:36;;;;;;;65.05;60.20;;;12.60;99.90;;;;;;4995985;28;20053;-71
2023/11/16 00:13:03;;;;;;;64.22;59.97;;;12.40;99.90;;;;;;4996042;28;20387;-71
2023/11/16 00:15:32;;;;;;;66.30;61.35;;;12.30;99.90;;;;;;4997779;28;20098;-71
2023/11/16 00:17:58;;;;;;;64.45;59.65;;;12.30;99.90;;;;;;5015246;28;20026;-70
2023/11/16 00:20:25;;;;;;;60.22;56.17;;;12.30;99.90;;;;;;5014346;28;20037;-71
2023/11/16 00:22:52;;;;;;;63.47;59.28;;;12.30;99.90;;;;;;5015091;28;20033;-71
2023/11/16 00:25:18;;;;;;;63.22;58.92;;;12.40;99.90;;;;;;5014583;28;20046;-71
2023/11/16 00:27:45;;;;;;;64.38;59.92;;;12.50;99.90;;;;;;5015017;28;20045;-71
2023/11/16 00:30:13;;;;;;;68.35;63.45;;;12.60;99.90;;;;;;5013903;28;20049;-71
2023/11/16 00:32:39;;;;;;;76.60;71.28;;;12.70;99.90;;;;;;5015307;28;20471;-69
2023/11/16 00:35:06;;;;;;;70.40;65.50;;;12.70;99.90;;;;;;5014303;28;20049;-71
2023/11/16 00:37:32;;;;;;;68.25;63.53;;;12.80;99.90;;;;;;5014369;28;20030;-70
2023/11/16 00:39:58;;;;;;;60.22;55.65;;;12.70;99.90;;;;;;5014901;28;20400;-70
2023/11/16 00:42:24;;;;;;;52.55;48.72;;;12.60;99.90;;;;;;5014470;28;20026;-71
2023/11/16 00:44:51;;;;;;;59.45;55.28;;;12.40;99.90;;;;;;5014573;28;20041;-70
2023/11/16 00:47:19;;;;;;;58.25;54.15;;;12.30;99.90;;;;;;5012569;28;20479;-71
2023/11/16 00:49:46;;;;;;;78.00;72.63;;;12.30;99.90;;;;;;5014318;28;20042;-71
2023/11/16 00:52:12;;;;;;;53.72;50.05;;;12.20;99.90;;;;;;5013678;28;20383;-71
2023/11/16 00:54:39;;;;;;;51.00;47.28;;;12.20;99.90;;;;;;5014534;28;20045;-70
2023/11/16 00:57:05;;;;;;;55.20;51.30;;;12.20;99.90;;;;;;5014249;28;20042;-71
2023/11/16 00:59:31;;;;;;;56.92;53.08;;;12.30;99.90;;;;;;5014330;28;20398;-71
2023/11/16 01:01:59;;;;;;;58.65;54.65;;;12.40;99.90;;;;;;5013513;28;20041;-71
2023/11/16 01:04:25;;;;;;;57.25;53.13;;;12.40;99.90;;;;;;5014214;28;20053;-71
2023/11/16 01:06:53;;;;;;;55.08;51.17;;;12.50;99.90;;;;;;5013700;28;20034;-70
2023/11/16 01:09:20;;;;;;;60.05;55.85;;;12.50;99.90;;;;;;5014456;28;20046;-70
2023/11/16 01:11:46;;;;;;;63.80;59.35;;;12.50;99.90;;;;;;5013522;28;20049;-71
2023/11/16 01:14:16;;;;;;;63.35;59.22;;;12.60;99.90;;;;;;5009066;28;20050;-71
2023/11/16 01:16:44;;;;;;;65.70;60.88;;;12.50;99.90;;;;;;4993343;28;20035;-70
2023/11/16 01:19:13;;;;;;;53.78;49.65;;;12.50;99.90;;;;;;4994662;28;20046;-71
2023/11/16 01:21:44;;;;;;;71.30;66.75;;;12.60;99.90;;;;;;4994315;28;20042;-71
2023/11/16 01:24:11;;;;;;;66.00;61.83;;;12.60;99.90;;;;;;4994520;28;20193;-70
2023/11/16 01:26:40;;;;;;;68.53;63.88;;;12.50;99.90;;;;;;4993766;28;20057;-71
2023/11/16 01:29:09;;;;;;;58.70;54.45;;;12.40;99.90;;;;;;4994610;28;20384;-71
2023/11/16 01:31:37;;;;;;;64.95;60.53;;;12.30;99.90;;;;;;4991984;28;20045;-70
2023/11/16 01:34:04;;;;;;;63.05;58.55;;;12.20;99.90;;;;;;4994101;28;20053;-70
2023/11/16 01:36:30;;;;;;;59.30;55.22;;;12.20;99.90;;;;;;4993944;28;20477;-71
2023/11/16 01:38:57;;;;;;;42.85;39.17;;;12.20;99.90;;;;;;4994087;28;20476;-71
2023/11/16 01:41:23;;;;;;;45.95;42.08;;;12.20;99.90;;;;;;4993749;28;20050;-70
2023/11/16 01:43:50;;;;;;;44.78;41.33;;;12.20;99.90;;;;;;4993123;28;20045;-71
2023/11/16 01:46:17;;;;;;;41.40;37.92;;;12.20;99.90;;;;;;4992924;28;20046;-70
2023/11/16 01:48:43;;;;;;;46.03;42.33;;;12.30;99.90;;;;;;4993911;28;20030;-70
2023/11/16 01:51:14;;;;;;;41.55;37.83;;;12.30;99.90;;;;;;4993375;28;20053;-70
2023/11/16 01:53:43;;;;;;;42.83;39.35;;;12.30;99.90;;;;;;4993708;28;20388;-70
2023/11/16 01:56:09;;;;;;;45.50;42.13;;;12.30;99.90;;;;;;4992140;28;20042;-70
2023/11/16 01:58:35;;;;;;;47.33;43.72;;;12.30;99.90;;;;;;4992584;28;20022;-70
2023/11/16 02:01:01;;;;;;;44.65;40.92;;;12.20;99.90;;;;;;4991117;28;20047;-70
2023/11/16 02:03:28;;;;;;;53.38;49.70;;;12.30;99.90;;;;;;4993690;28;20038;-70
2023/11/16 02:05:55;;;;;;;37.80;34.47;;;12.20;99.90;;;;;;4992076;28;20026;-70
2023/11/16 02:08:21;;;;;;;43.22;39.83;;;12.30;99.90;;;;;;4993729;28;20046;-70
2023/11/16 02:10:48;;;;;;;41.38;37.80;;;12.20;99.90;;;;;;4991912;28;20097;-70
2023/11/16 02:13:18;;;;;;;33.10;30.23;;;12.20;99.90;;;;;;4993340;28;20110;-70
2023/11/16 02:15:45;;;;;;;44.63;41.05;;;12.20;99.90;;;;;;4997127;28;20064;-70
2023/11/16 02:18:14;;;;;;;44.20;40.92;;;12.20;99.90;;;;;;5011717;28;20041;-69
2023/11/16 02:20:41;;;;;;;41.55;38.30;;;12.10;99.90;;;;;;5008636;28;20057;-70
2023/11/16 02:23:07;;;;;;;43.58;40.17;;;12.20;99.90;;;;;;4993707;28;20387;-70
2023/11/16 02:25:44;;;;;;;45.13;41.40;;;12.20;99.90;;;;;;4991645;28;20046;-70
2023/11/16 02:28:10;;;;;;;45.42;41.55;;;12.20;99.90;;;;;;4992041;28;20064;-70
2023/11/16 02:30:37;;;;;;;46.25;42.58;;;12.10;99.90;;;;;;4993780;28;20030;-70
2023/11/16 02:33:06;;;;;;;49.25;45.50;;;12.00;99.90;;;;;;5010375;28;20427;-70
2023/11/16 02:35:32;;;;;;;54.33;50.40;;;11.90;99.90;;;;;;4976697;28;20058;-70
2023/11/16 02:37:59;;;;;;;51.13;47.05;;;11.80;99.90;;;;;;4992179;28;20034;-70
2023/11/16 02:40:26;;;;;;;40.42;36.60;;;11.80;99.90;;;;;;4991670;28;20026;-70
2023/11/16 02:42:52;;;;;;;32.13;28.90;;;11.80;99.90;;;;;;4991766;28;20038;-70
2023/11/16 02:45:21;;;;;;;40.97;37.75;;;11.90;99.90;;;;;;4991836;28;20042;-70
2023/11/16 02:47:52;;;;;;;44.90;41.10;;;12.00;99.90;;;;;;4992987;28;20026;-70
2023/11/16 02:50:19;;;;;;;46.30;43.03;;;12.00;99.90;;;;;;4992515;28;20030;-70
2023/11/16 02:52:46;;;;;;;47.20;43.58;;;12.00;99.90;;;;;;5002795;28;20030;-70
2023/11/16 02:55:12;;;;;;;46.33;42.53;;;12.10;99.90;;;;;;5011835;28;20065;-70
2023/11/16 02:57:41;;;;;;;46.38;43.17;;;12.20;99.90;;;;;;5012295;28;20042;-70
2023/11/16 03:00:12;;;;;;;45.97;42.42;;;12.10;99.90;;;;;;5011537;28;20026;-70
2023/11/16 03:02:41;;;;;;;46.17;42.67;;;12.10;99.90;;;;;;4973558;28;20054;-70
2023/11/16 03:05:12;;;;;;;34.97;32.30;;;12.00;99.90;;;;;;4973237;28;20034;-70
2023/11/16 03:07:38;;;;;;;65.00;60.28;;;12.00;99.90;;;;;;4972293;28;20050;-70
2023/11/16 03:10:07;;;;;;;40.25;36.80;;;11.90;99.90;;;;;;4973524;28;20498;-70
2023/11/16 03:12:36;;;;;;;35.20;31.67;;;11.90;99.90;;;;;;4992441;28;20372;-70
2023/11/16 03:15:05;;;;;;;37.95;35.00;;;11.80;99.90;;;;;;4992677;28;20046;-70
2023/11/16 03:17:32;;;;;;;45.20;41.10;;;11.80;99.90;;;;;;5010413;28;20383;-70
2023/11/16 03:19:58;;;;;;;47.33;43.78;;;11.80;99.90;;;;;;5012254;28;20037;-70
2023/11/16 03:22:25;;;;;;;45.33;41.20;;;11.80;99.90;;;;;;5011768;28;20030;-70
2023/11/16 03:24:52;;;;;;;47.15;43.47;;;11.80;99.90;;;;;;5012138;28;20045;-70
2023/11/16 03:27:20;;;;;;;50.85;46.97;;;11.80;99.90;;;;;;5010352;28;20038;-70
2023/11/16 03:29:47;;;;;;;58.92;54.65;;;11.80;99.90;;;;;;5010679;28;20407;-70
2023/11/16 03:32:13;;;;;;;70.90;66.03;;;11.80;99.90;;;;;;5011190;28;20049;-70
2023/11/16 03:34:39;;;;;;;61.60;57.35;;;11.80;99.90;;;;;;5012168;28;20046;-69
2023/11/16 03:37:05;;;;;;;51.25;47.38;;;11.80;99.90;;;;;;5011560;28;20034;-70
2023/11/16 03:39:31;;;;;;;42.92;39.83;;;11.70;99.90;;;;;;5012162;28;20037;-70
2023/11/16 03:42:01;;;;;;;45.60;42.75;;;11.70;99.90;;;;;;5011157;28;20037;-70
2023/11/16 03:44:27;;;;;;;47.25;43.63;;;11.70;99.90;;;;;;5012028;28;20030;-70
2023/11/16 03:46:53;;;;;;;48.92;44.85;;;11.70;99.90;;;;;;5010971;28;20041;-70
2023/11/16 03:49:20;;;;;;;50.08;46.78;;;11.70;99.90;;;;;;5014749;28;20026;-69
2023/11/16 03:51:46;;;;;;;49.05;45.70;;;11.70;99.90;;;;;;5015083;28;20055;-70
2023/11/16 03:54:12;;;;;;;43.50;40.10;;;11.70;99.90;;;;;;5015869;28;20048;-70
2023/11/16 03:56:38;;;;;;;56.08;51.85;;;11.70;99.90;;;;;;5014816;28;20390;-69
2023/11/16 03:59:05;;;;;;;42.65;39.35;;;11.60;99.90;;;;;;5015616;28;20029;-70
2023/11/16 04:01:35;;;;;;;53.45;49.90;;;11.60;99.90;;;;;;5013111;28;20422;-70
2023/11/16 04:04:01;;;;;;;44.80;41.37;;;11.60;99.90;;;;;;5015647;28;20038;-68
2023/11/16 04:06:29;;;;;;;55.72;52.08;;;11.60;99.90;;;;;;5014870;28;20288;-69
2023/11/16 04:08:56;;;;;;;65.00;60.17;;;11.60;99.90;;;;;;5015227;28;20022;-68
2023/11/16 04:11:23;;;;;;;63.38;58.95;;;11.60;99.90;;;;;;5013330;28;20414;-68
2023/11/16 04:13:49;;;;;;;65.72;60.83;;;11.60;99.90;;;;;;5012477;28;20041;-69
2023/11/16 04:16:24;;;;;;;50.20;46.78;;;11.60;99.90;;;;;;4992833;28;20046;-68
2023/11/16 04:18:53;;;;;;;43.80;40.15;;;11.50;99.90;;;;;;4978925;28;20046;-69
2023/11/16 04:21:20;;;;;;;49.03;45.30;;;11.50;99.90;;;;;;4995256;28;20492;-68
2023/11/16 04:23:52;;;;;;;58.00;53.45;;;11.50;99.90;;;;;;4994014;28;20026;-68
2023/11/16 04:26:21;;;;;;;50.15;45.90;;;11.50;99.90;;;;;;4993523;28;20042;-69
2023/11/16 04:28:54;;;;;;;47.75;44.00;;;11.60;99.90;;;;;;4995463;28;20027;-68
2023/11/16 04:31:20;;;;;;;44.10;40.90;;;11.50;99.90;;;;;;4993393;28;20508;-69
2023/11/16 04:33:51;;;;;;;45.20;41.85;;;11.50;99.90;;;;;;4994056;28;20033;-69
2023/11/16 04:36:28;;;;;;;51.60;48.13;;;11.50;99.90;;;;;;4993739;28;20043;-69
2023/11/16 04:38:57;;;;;;;43.63;40.47;;;11.50;99.90;;;;;;4995135;28;20030;-69
2023/11/16 04:41:25;;;;;;;49.10;45.60;;;11.50;99.90;;;;;;4994420;28;20026;-69
2023/11/16 04:43:51;;;;;;;63.40;59.30;;;11.60;99.90;;;;;;4995113;28;20375;-68
2023/11/16 04:46:18;;;;;;;35.00;31.98;;;11.60;99.90;;;;;;4993157;28;20419;-69
2023/11/16 04:48:44;;;;;;;39.42;36.20;;;11.60;99.90;;;;;;4994965;28;20031;-69
2023/11/16 04:51:11;;;;;;;32.70;30.05;;;11.60;99.90;;;;;;4994844;28;20037;-69
2023/11/16 04:53:38;;;;;;;42.72;38.22;;;11.60;99.90;;;;;;4994924;28;20388;-68
2023/11/16 04:56:05;;;;;;;27.83;25.38;;;11.50;99.90;;;;;;4994229;28;20050;-69
2023/11/16 04:58:31;;;;;;;33.55;31.02;;;11.50;99.90;;;;;;4993657;28;20045;-69
2023/11/16 05:00:58;;;;;;;32.80;30.20;;;11.60;99.90;;;;;;4991617;28;20106;-69
2023/11/16 05:03:24;;;;;;;41.25;38.40;;;11.60;99.90;;;;;;4993594;28;20022;-69
2023/11/16 05:05:50;;;;;;;30.10;27.30;;;11.60;99.90;;;;;;4994336;28;20037;-69
2023/11/16 05:08:16;;;;;;;44.60;41.55;;;11.60;99.90;;;;;;4994767;28;20038;-69
2023/11/16 05:10:42;;;;;;;47.17;43.45;;;11.50;99.90;;;;;;4994411;28;20035;-69
2023/11/16 05:13:08;;;;;;;45.42;42.00;;;11.60;99.90;;;;;;4994476;28;20041;-69
2023/11/16 05:15:34;;;;;;;44.40;41.55;;;11.60;99.90;;;;;;4996760;28;20064;-69
2023/11/16 05:18:00;;;;;;;36.35;33.38;;;11.50;99.90;;;;;;5012896;28;20041;-69
2023/11/16 05:20:26;;;;;;;41.80;38.58;;;11.50;99.90;;;;;;5011939;28;20434;-69
2023/11/16 05:22:53;;;;;;;164.02;44.47;;;11.50;99.90;;;;;;5013904;28;20030;-70
2023/11/16 05:25:19;;;;;;;46.63;43.22;;;11.50;99.90;;;;;;5012622;28;20487;-69
2023/11/16 05:27:45;;;;;;;35.60;32.95;;;11.50;99.90;;;;;;5014035;28;20038;-69
2023/11/16 05:30:12;;;;;;;210.50;43.90;;;11.50;99.90;;;;;;5012759;28;20049;-69
2023/11/16 05:32:39;;;;;;;36.15;33.55;;;11.60;99.90;;;;;;4999378;28;20045;-69
2023/11/16 05:35:05;;;;;;;31.83;29.63;;;11.50;99.90;;;;;;4993114;28;20410;-69
2023/11/16 05:37:31;;;;;;;36.58;33.42;;;11.60;99.90;;;;;;4993227;28;20034;-70
2023/11/16 05:39:58;;;;;;;29.90;27.50;;;11.50;99.90;;;;;;4994355;28;20034;-69
2023/11/16 05:42:24;;;;;;;46.25;42.80;;;11.60;99.90;;;;;;4993119;28;20045;-69
2023/11/16 05:44:50;;;;;;;36.05;32.92;;;11.60;99.90;;;;;;4993831;28;20395;-69
2023/11/16 05:47:16;;;;;;;39.78;36.85;;;11.60;99.90;;;;;;4993078;28;20034;-69
2023/11/16 05:49:43;;;;;;;41.53;38.40;;;11.50;99.90;;;;;;4980879;28;20547;-69
2023/11/16 05:52:09;;;;;;;29.63;27.13;;;11.50;99.90;;;;;;4989567;28;20034;-69
2023/11/16 05:54:35;;;;;;;44.05;41.10;;;11.50;99.90;;;;;;4993754;28;20459;-70
2023/11/16 05:57:01;;;;;;;41.42;38.70;;;11.50;99.90;;;;;;4992984;28;20041;-69
2023/11/16 05:59:27;;;;;;;35.63;32.97;;;11.50;99.90;;;;;;4994184;28;20038;-69
2023/11/16 06:01:53;;;;;;;35.20;33.20;;;11.50;99.90;;;;;;4991799;28;20045;-69
2023/11/16 06:04:22;;;;;;;44.83;42.22;;;11.50;99.90;;;;;;4993689;28;20038;-69
2023/11/16 06:06:49;;;;;;;52.72;49.33;;;11.60;99.90;;;;;;4991569;28;20035;-69
2023/11/16 06:09:15;;;;;;;41.80;37.95;;;11.60;99.90;;;;;;4993615;28;20045;-69
2023/11/16 06:11:42;;;;;;;42.65;39.85;;;11.60;99.90;;;;;;4992838;28;20379;-69
2023/11/16 06:14:11;;;;;;;37.58;35.17;;;11.60;99.90;;;;;;4993680;28;20038;-68
2023/11/16 06:16:44;;;;;;;42.78;39.90;;;11.60;99.90;;;;;;5004631;28;20392;-70
2023/11/16 06:19:10;;;;;;;35.50;33.20;;;11.70;99.90;;;;;;5012821;28;20046;-70
2023/11/16 06:21:37;;;;;;;42.83;40.05;;;11.70;99.90;;;;;;5012151;28;20438;-70
2023/11/16 06:24:03;;;;;;;40.15;37.75;;;11.70;99.90;;;;;;4993794;28;20053;-70
2023/11/16 06:26:31;;;;;;;38.38;35.95;;;11.70;99.90;;;;;;4992926;28;20030;-70
2023/11/16 06:28:57;;;;;;;33.15;31.02;;;11.80;99.90;;;;;;4993039;28;20030;-70
2023/11/16 06:31:24;;;;;;;41.35;39.13;;;11.90;99.90;;;;;;4992575;28;20039;-71
2023/11/16 06:33:50;;;;;;;34.72;32.60;;;11.90;99.90;;;;;;4993486;28;20053;-71
2023/11/16 06:36:16;;;;;;;38.17;35.55;;;11.90;99.90;;;;;;4992480;28;20045;-70
2023/11/16 06:38:42;;;;;;;44.60;41.85;;;12.00;99.90;;;;;;4993002;28;20463;-71
2023/11/16 06:41:09;;;;;;;45.80;43.15;;;12.00;99.90;;;;;;4992680;28;20038;-70
2023/11/16 06:43:35;;;;;;;50.90;48.28;;;11.90;99.90;;;;;;4992927;28;20045;-70
2023/11/16 06:46:02;;;;;;;48.38;45.58;;;12.00;99.90;;;;;;4992209;28;20042;-70
2023/11/16 06:48:30;;;;;;;53.03;48.65;;;12.00;99.90;;;;;;4991599;28;20041;-70
2023/11/16 06:50:59;;;;;;;40.35;38.05;;;12.10;99.90;;;;;;4992623;28;20054;-71
2023/11/16 06:53:26;;;;;;;36.80;34.60;;;12.20;99.90;;;;;;4993265;28;20490;-70
2023/11/16 06:55:52;;;;;;;25.38;23.80;;;12.20;99.90;;;;;;4992953;28;20427;-71
2023/11/16 06:58:22;;;;;;;31.10;29.35;;;12.30;99.90;;;;;;4997533;28;20033;-70
2023/11/16 07:00:50;;;;;;;36.10;33.92;;;12.30;99.90;;;;;;5010186;28;20045;-70
2023/11/16 07:03:16;;;;;;;36.50;34.42;;;12.40;99.90;;;;;;5012067;28;20038;-71
2023/11/16 07:05:43;;;;;;;37.30;35.20;;;12.50;99.90;;;;;;5010420;28;20034;-71
2023/11/16 07:08:09;;;;;;;43.67;41.10;;;12.50;99.90;;;;;;5005538;28;20039;-70
2023/11/16 07:10:36;;;;;;;40.22;37.83;;;12.60;99.90;;;;;;4992608;28;20399;-70
2023/11/16 07:13:03;;;;;;;35.05;33.00;;;12.60;99.90;;;;;;4992521;28;20051;-71
2023/11/16 07:15:32;;;;;;;35.15;32.95;;;12.60;99.90;;;;;;4991850;28;20038;-71
2023/11/16 07:17:59;;;;;;;28.50;26.52;;;12.70;99.90;;;;;;4993100;28;20046;-71
2023/11/16 07:20:25;;;;;;;35.08;32.95;;;12.70;99.90;;;;;;4992369;28;20042;-70
2023/11/16 07:22:51;;;;;;;39.10;36.63;;;12.80;99.90;;;;;;4993016;28;20050;-69
2023/11/16 07:25:20;;;;;;;42.25;39.83;;;12.80;99.90;;;;;;4996289;28;20061;-69
2023/11/16 07:27:47;;;;;;;44.20;41.53;;;12.80;99.90;;;;;;4997784;28;20498;-69
2023/11/16 07:30:13;;;;;;;33.45;30.83;;;12.90;99.90;;;;;;5002178;28;20050;-69
2023/11/16 07:32:40;;;;;;;37.88;35.28;;;12.90;99.90;;;;;;5016040;28;20382;-70
2023/11/16 07:35:15;;;;;;;42.17;38.72;;;13.00;99.90;;;;;;5015577;28;20046;-69
2023/11/16 07:37:45;;;;;;;41.60;38.10;;;13.10;99.90;;;;;;5015338;28;20430;-70
2023/11/16 07:40:17;;;;;;;50.47;46.60;;;13.10;99.90;;;;;;5009970;28;20037;-69
2023/11/16 07:42:44;;;;;;;51.58;47.72;;;13.20;99.90;;;;;;4996382;28;20042;-69
2023/11/16 07:45:13;;;;;;;44.60;40.55;;;13.30;99.90;;;;;;4995606;28;20033;-69
2023/11/16 07:47:41;;;;;;;58.83;53.53;;;13.30;99.90;;;;;;4995769;28;20041;-69
2023/11/16 07:50:09;;;;;;;66.80;60.05;;;13.40;99.90;;;;;;5004325;28;20049;-69
2023/11/16 07:52:42;;;;;;;63.53;56.38;;;13.50;99.90;;;;;;5013891;28;20054;-69
2023/11/16 07:55:21;;;;;;;68.38;61.83;;;13.60;99.90;;;;;;5015540;28;20375;-69
2023/11/16 07:57:49;;;;;;;71.90;64.47;;;13.60;99.90;;;;;;4999490;28;20778;-69
2023/11/16 08:00:22;;;;;;;74.72;63.10;;;13.70;99.90;;;;;;4995532;28;20494;-69
2023/11/16 08:05:37;;;;;;;73.82;54.60;;;13.80;99.90;;;;;;5017239;28;20029;-69
2023/11/16 08:08:11;;;;;;;94.93;85.95;;;13.90;99.90;;;;;;5002578;28;20030;-69
2023/11/16 08:10:42;;;;;;;69.68;38.90;;;13.90;99.90;;;;;;4995401;28;20038;-68
2023/11/16 08:13:11;;;;;;;54.75;35.33;;;14.00;99.90;;;;;;4994399;28;20038;-68
2023/11/16 08:15:40;;;;;;;62.38;40.80;;;14.00;99.90;;;;;;4997588;28;20038;-68
2023/11/16 08:18:07;;;;;;;78.95;69.80;;;14.10;99.90;;;;;;5002268;28;20042;-68
2023/11/16 08:20:33;;;;;;;71.93;61.08;;;14.10;99.90;;;;;;5007409;28;20042;-68
2023/11/16 08:22:59;;;;;;;66.65;46.55;;;14.10;99.90;;;;;;5015261;28;20045;-68
2023/11/16 08:25:30;;;;;;;57.10;50.55;;;14.10;99.90;;;;;;4997260;28;20054;-72
2023/11/16 08:27:56;;;;;;;;;;;14.10;99.90;;;;;;4990925;28;20046;-69
2023/11/16 08:30:22;;;;;;;74.82;59.58;;;14.10;99.90;;;;;;4992518;28;19917;-72
2023/11/16 08:32:48;;;;;;;94.78;86.55;;;14.10;99.90;;;;;;4992953;28;20037;-72
2023/11/16 08:35:14;;;;;;;70.97;63.63;;;14.10;99.90;;;;;;4992263;28;20030;-72
2023/11/16 08:37:41;;;;;;;63.97;57.28;;;14.10;99.90;;;;;;4994500;28;20026;-72
2023/11/16 08:40:18;;;;;;;64.72;57.05;;;14.10;99.90;;;;;;4994552;28;20042;-72
2023/11/16 08:42:47;;;;;;;64.15;47.72;;;14.10;99.90;;;;;;4985255;28;20053;-71
2023/11/16 08:45:20;;;;;;;53.90;48.28;;;14.10;99.90;;;;;;4988932;28;20038;-71
2023/11/16 08:47:47;;;;;;;73.10;65.30;;;14.10;99.90;;;;;;4992865;28;20045;-72
2023/11/16 08:50:16;;;;;;;93.40;84.85;;;14.10;99.90;;;;;;4994512;28;20026;-72
2023/11/16 08:52:46;;;;;;;70.47;63.28;;;14.10;99.90;;;;;;4990516;28;20038;-69
2023/11/16 08:55:13;;;;;;;62.33;51.20;;;14.10;99.90;;;;;;4991863;28;20038;-72
2023/11/16 08:57:41;;;;;;;66.75;45.83;;;14.10;99.90;;;;;;5006502;28;20038;-72
2023/11/16 09:02:57;;;;;;;61.72;48.10;;;14.10;99.90;;;;;;4980712;28;20042;-72
2023/11/16 09:05:24;;;;;;;65.72;46.92;;;14.10;99.90;;;;;;5000123;28;20027;-71
2023/11/16 09:07:53;;;;;;;55.25;40.05;;;14.10;99.90;;;;;;4995752;28;20053;-72
2023/11/16 09:10:20;;;;;;;59.15;41.50;;;14.00;99.90;;;;;;4994077;28;20026;-72
2023/11/16 09:12:47;;;;;;;61.15;44.47;;;14.00;99.90;;;;;;4993366;28;20039;-71
2023/11/16 09:15:15;;;;;;;89.38;80.13;;;13.90;99.90;;;;;;4991574;28;20034;-72
2023/11/16 09:17:45;;;;;;;62.15;51.90;;;13.90;99.90;;;;;;4992125;28;20034;-71
2023/11/16 09:20:12;;;;;;;62.08;45.78;;;13.90;99.90;;;;;;4992959;28;20049;-72
2023/11/16 09:22:38;;;;;;;82.20;73.45;;;13.90;99.90;;;;;;4993145;28;20045;-72
2023/11/16 09:25:06;;;;;;;114.05;103.38;;;13.90;99.90;;;;;;4990130;28;20050;-71
2023/11/16 09:27:38;;;;;;;91.05;81.97;;;13.90;99.90;;;;;;5000738;28;20038;-68
2023/11/16 09:30:05;;;;;;;119.40;109.10;;;13.90;99.90;;;;;;4992036;28;20030;-68
2023/11/16 09:32:32;;;;;;;102.07;92.28;;;13.80;99.90;;;;;;4993366;28;20041;-68
2023/11/16 09:35:03;;;;;;;110.95;100.95;;;13.80;99.90;;;;;;4993664;28;20046;-68
2023/11/16 09:37:32;;;;;;;108.32;98.05;;;13.80;99.90;;;;;;4993568;28;20499;-68
2023/11/16 09:39:58;;;;;;;76.55;68.38;;;13.80;99.90;;;;;;4994459;28;20062;-68
2023/11/16 09:42:27;;;;;;;116.55;104.88;;;13.80;99.90;;;;;;4993582;28;20045;-68
2023/11/16 09:44:58;;;;;;;88.40;78.90;;;13.80;99.90;;;;;;4991871;28;20041;-68
2023/11/16 09:47:25;;;;;;;90.43;81.75;;;13.80;99.90;;;;;;4997563;28;20037;-68
2023/11/16 09:49:58;;;;;;;114.78;103.88;;;13.80;99.90;;;;;;4992724;28;20497;-68
2023/11/16 09:52:32;;;;;;;84.07;75.05;;;13.80;99.90;;;;;;4989443;28;20064;-68
2023/11/16 09:55:00;;;;;;;74.65;67.15;;;13.80;99.90;;;;;;4981152;28;20341;-68
2023/11/16 09:57:31;;;;;;;87.20;78.40;;;13.80;99.90;;;;;;4987414;28;20055;-68
2023/11/16 10:00:02;;;;;;;104.63;94.65;;;13.80;99.90;;;;;;4991322;28;20034;-68
2023/11/16 10:02:28;;;;;;;;;;;13.80;99.90;;;;;;4991649;28;20049;-68
2023/11/16 10:04:54;;;;;;;73.28;65.85;;;13.80;99.90;;;;;;4991847;28;19918;-68
2023/11/16 10:07:26;;;;;;;80.10;72.63;;;13.80;99.90;;;;;;4990279;28;20039;-68
2023/11/16 10:09:53;;;;;;;;;;;13.80;99.90;;;;;;4982312;28;20050;-68
2023/11/16 10:12:20;;;;;;;78.20;70.57;;;13.80;99.90;;;;;;4979114;28;19906;-68
2023/11/16 10:14:52;;;;;;;73.30;65.85;;;13.90;99.90;;;;;;4991118;28;20451;-68
2023/11/16 10:17:24;;;;;;;62.40;55.58;;;13.90;99.90;;;;;;4986018;28;20057;-68
2023/11/16 10:19:51;;;;;;;68.53;61.08;;;13.90;99.90;;;;;;4976462;28;20473;-68
2023/11/16 10:22:17;;;;;;;68.85;62.08;;;13.90;99.90;;;;;;4993125;28;20030;-68
2023/11/16 10:24:44;;;;;;;69.30;63.00;;;13.90;99.90;;;;;;4992628;28;20039;-68
2023/11/16 10:27:11;;;;;;;74.53;66.75;;;13.90;99.90;;;;;;4986601;28;20507;-68
2023/11/16 10:29:39;;;;;;;82.05;74.15;;;13.90;99.90;;;;;;4986736;28;20026;-68
2023/11/16 10:32:06;;;;;;;56.78;49.50;;;13.90;99.90;;;;;;4992843;28;20046;-72
2023/11/16 10:34:32;;;;;;;61.10;53.28;;;14.00;99.90;;;;;;4978676;28;20057;-71
2023/11/16 10:37:00;;;;;;;82.28;75.57;;;14.00;99.90;;;;;;4989467;28;20038;-71
2023/11/16 10:39:27;;;;;;;66.18;60.50;;;14.00;99.90;;;;;;4974273;28;20042;-71
2023/11/16 10:41:53;;;;;;;57.83;52.17;;;14.00;99.90;;;;;;4987131;28;20464;-71
2023/11/16 10:44:22;;;;;;;82.13;74.93;;;14.00;99.90;;;;;;4985935;28;20440;-71
2023/11/16 10:46:49;;;;;;;74.20;67.78;;;14.00;99.90;;;;;;4984060;28;20030;-71
2023/11/16 10:49:16;;;;;;;72.30;65.60;;;14.00;99.90;;;;;;4975206;28;20046;-71
2023/11/16 10:51:45;;;;;;;58.78;52.95;;;14.00;99.90;;;;;;4992513;28;20038;-71
2023/11/16 10:54:12;;;;;;;59.58;54.47;;;14.00;99.90;;;;;;4990915;28;20455;-71
2023/11/16 10:56:43;;;;;;;61.10;54.95;;;14.00;99.90;;;;;;4990193;28;20038;-72
2023/11/16 10:59:13;;;;;;;77.45;70.00;;;14.00;99.90;;;;;;4986687;28;20033;-71
2023/11/16 11:01:39;;;;;;;64.70;59.00;;;14.10;99.90;;;;;;4989994;28;20042;-71
2023/11/16 11:04:06;;;;;;;66.90;60.35;;;14.00;99.90;;;;;;4981220;28;20035;-71
2023/11/16 11:06:39;;;;;;;131.32;121.05;;;14.10;99.90;;;;;;4982238;28;20022;-72
2023/11/16 11:09:07;;;;;;;62.30;56.67;;;14.10;99.90;;;;;;4991256;28;20031;-71
2023/11/16 11:11:36;;;;;;;78.10;72.53;;;14.10;99.90;;;;;;4992101;28;20383;-72
2023/11/16 11:14:05;;;;;;;72.63;65.93;;;14.10;99.90;;;;;;4975046;28;20034;-71
2023/11/16 11:16:32;;;;;;;69.07;62.60;;;14.10;99.90;;;;;;4990404;28;20049;-71
2023/11/16 11:18:58;;;;;;;88.07;81.43;;;14.10;99.90;;;;;;4990732;28;20075;-71
2023/11/16 11:21:26;;;;;;;80.32;73.95;;;14.10;99.90;;;;;;4990847;28;20038;-71
2023/11/16 11:24:05;;;;;;;91.60;84.40;;;14.10;99.90;;;;;;4990959;28;20026;-71
2023/11/16 11:26:41;;;;;;;85.45;78.90;;;14.10;99.90;;;;;;4989817;28;20042;-71
2023/11/16 11:29:10;;;;;;;86.72;79.13;;;14.10;99.90;;;;;;4973071;28;20087;-71
2023/11/16 11:32:03;;;;;;;65.32;59.03;;;14.10;99.90;;;;;;4990532;28;20087;-72
2023/11/16 11:34:30;;;;;;;80.15;73.13;;;14.10;99.90;;;;;;4986562;28;20051;-68
2023/11/16 11:36:56;;;;;;;87.70;80.63;;;14.20;99.90;;;;;;4991091;28;20062;-68
2023/11/16 11:39:26;;;;;;;86.85;79.38;;;14.10;99.90;;;;;;4990692;28;20054;-68
2023/11/16 11:41:59;;;;;;;72.47;65.63;;;14.20;99.90;;;;;;4990665;28;20039;-68
2023/11/16 11:44:28;;;;;;;67.65;61.55;;;14.20;99.90;;;;;;4992154;28;20030;-68
2023/11/16 11:46:57;;;;;;;54.70;49.25;;;14.20;99.90;;;;;;4991402;28;20058;-67
2023/11/16 11:49:24;;;;;;;56.45;51.25;;;14.20;99.90;;;;;;4992064;28;20038;-68
2023/11/16 11:51:54;;;;;;;65.22;58.38;;;14.20;99.90;;;;;;4989964;28;20057;-67
2023/11/16 11:54:35;;;;;;;72.30;66.25;;;14.30;99.90;;;;;;4990716;28;20694;-67
2023/11/16 11:57:05;;;;;;;;;;;14.20;99.90;;;;;;4992283;28;20042;-68
2023/11/16 11:59:31;;;;;;;81.57;75.13;;;14.30;99.90;;;;;;4991827;28;19910;-68
2023/11/16 12:02:10;;;;;;;67.45;61.30;;;14.30;99.90;;;;;;4977351;28;20392;-68
2023/11/16 12:04:36;;;;;;;64.63;58.53;;;14.30;99.90;;;;;;4982457;28;20042;-68
2023/11/16 12:07:10;;;;;;;68.35;61.42;;;14.30;99.90;;;;;;4991086;28;20050;-68
2023/11/16 12:09:39;;;;;;;71.85;65.68;;;14.40;99.90;;;;;;4993059;28;20045;-67
2023/11/16 12:12:05;;;;;;;81.60;73.95;;;14.40;99.90;;;;;;4994575;28;20054;-68
2023/11/16 12:14:42;;;;;;;70.85;64.63;;;14.40;99.90;;;;;;4994398;28;20034;-68
2023/11/16 12:17:08;;;;;;;76.05;69.40;;;14.40;99.90;;;;;;4990738;28;20050;-68
2023/11/16 12:19:37;;;;;;;62.58;56.65;;;14.50;99.90;;;;;;4995495;28;20039;-68
2023/11/16 12:22:06;;;;;;;69.25;62.38;;;14.50;99.90;;;;;;5012090;28;20117;-68
2023/11/16 12:24:33;;;;;;;66.90;61.08;;;14.50;99.90;;;;;;5007086;28;20042;-68
2023/11/16 12:26:59;;;;;;;64.68;58.90;;;14.50;99.90;;;;;;4995044;28;20038;-67
2023/11/16 12:29:26;;;;;;;96.88;89.15;;;14.50;99.90;;;;;;4995254;28;20030;-68
2023/11/16 12:31:54;;;;;;;82.88;76.72;;;14.50;99.90;;;;;;5009696;28;20037;-68
2023/11/16 12:34:22;;;;;;;59.65;54.33;;;14.60;99.90;;;;;;5013530;28;20046;-68
2023/11/16 12:36:54;;;;;;;76.28;69.93;;;14.60;99.90;;;;;;4986906;28;20054;-72